Time;durP1;ratioP1;P1;durP2;ratioP2;P2;SDS_P1;SDS_P2;PMS_P1;PMS_P2;Temp;Humidity;BMP_temperature;BMP_pressure;BME280_temperature;BME280_humidity;BME280_pressure;Samples;Min_cycle;Max_cycle;Signal;HPM_P1;HPM_P2
2023/08/08 00:02:12;;;;;;;7.35;1.73;;;;;;;;;;4954598;28;20130;-66
2023/08/08 00:04:38;;;;;;;10.07;2.30;;;;;;;;;;4953146;28;20031;-63
2023/08/08 00:07:04;;;;;;;10.20;2.25;;;;;;;;;;4954101;28;20027;-65
2023/08/08 00:09:29;;;;;;;6.60;2.47;;;;;;;;;;4954064;28;20038;-67
2023/08/08 00:11:56;;;;;;;10.68;2.10;;;;;;;;;;4954745;28;20134;-67
2023/08/08 00:14:22;;;;;;;8.77;1.90;;;;;;;;;;4955289;28;20117;-63
2023/08/08 00:16:47;;;;;;;8.05;2.17;;;;;;;;;;4955199;28;20051;-63
2023/08/08 00:19:13;;;;;;;14.55;2.03;;;;;;;;;;4955359;28;20109;-63
2023/08/08 00:21:38;;;;;;;8.15;1.98;;;;;;;;;;4954498;28;20027;-64
2023/08/08 00:24:04;;;;;;;7.82;2.00;;;;;;;;;;4954813;28;20491;-67
2023/08/08 00:26:29;;;;;;;7.47;2.10;;;;;;;;;;4955083;28;20038;-67
2023/08/08 00:28:54;;;;;;;9.55;2.20;;;;;;;;;;4954895;28;20024;-64
2023/08/08 00:31:20;;;;;;;6.20;2.05;;;;;;;;;;4955216;28;20035;-65
2023/08/08 00:33:45;;;;;;;6.15;1.63;;;;;;;;;;4954994;28;20023;-67
2023/08/08 00:36:11;;;;;;;11.38;2.83;;;;;;;;;;4956735;28;20031;-64
2023/08/08 00:38:36;;;;;;;8.85;1.88;;;;;;;;;;4954794;28;20053;-67
2023/08/08 00:41:02;;;;;;;8.57;2.08;;;;;;;;;;4955034;28;20419;-64
2023/08/08 00:43:27;;;;;;;5.90;1.60;;;;;;;;;;4954370;28;20575;-66
2023/08/08 00:45:53;;;;;;;7.90;2.65;;;;;;;;;;4966065;28;20073;-64
2023/08/08 00:48:19;;;;;;;7.13;1.90;;;;;;;;;;4962043;28;20381;-68
2023/08/08 00:50:45;;;;;;;10.02;1.67;;;;;;;;;;4954199;28;20027;-68
2023/08/08 00:53:11;;;;;;;8.20;1.85;;;;;;;;;;4954676;28;20469;-68
2023/08/08 00:55:37;;;;;;;5.93;1.50;;;;;;;;;;4954499;28;20046;-63
2023/08/08 00:58:04;;;;;;;8.15;1.67;;;;;;;;;;4954384;28;20024;-63
2023/08/08 01:00:29;;;;;;;8.82;1.80;;;;;;;;;;4954397;28;20094;-63
2023/08/08 01:02:55;;;;;;;7.88;2.00;;;;;;;;;;4954348;29;20031;-67
2023/08/08 01:05:21;;;;;;;5.88;1.80;;;;;;;;;;4938075;28;20032;-68
2023/08/08 01:08:03;;;;;;;10.55;1.58;;;;;;;;;;4935125;29;20036;-65
2023/08/08 01:10:37;;;;;;;4.35;1.50;;;;;;;;;;4935167;29;20036;-63
2023/08/08 01:13:21;;;;;;;6.18;1.50;;;;;;;;;;4935098;29;20020;-65
2023/08/08 01:15:49;;;;;;;6.05;1.83;;;;;;;;;;4935170;29;20509;-63
2023/08/08 01:18:15;;;;;;;5.28;1.50;;;;;;;;;;4934889;29;20406;-66
2023/08/08 01:20:42;;;;;;;5.72;1.38;;;;;;;;;;4934896;29;20135;-63
2023/08/08 01:23:14;;;;;;;4.32;1.30;;;;;;;;;;4934943;29;20386;-63
2023/08/08 01:25:40;;;;;;;5.00;1.75;;;;;;;;;;4934821;29;20028;-63
2023/08/08 01:28:07;;;;;;;9.43;1.67;;;;;;;;;;4934926;29;20102;-68
2023/08/08 01:30:32;;;;;;;4.57;1.83;;;;;;;;;;4934799;29;20043;-67
2023/08/08 01:32:58;;;;;;;8.05;1.48;;;;;;;;;;4934546;29;20058;-67
2023/08/08 01:35:28;;;;;;;4.57;1.33;;;;;;;;;;4947993;28;20523;-66
2023/08/08 01:38:02;;;;;;;5.53;1.40;;;;;;;;;;4952734;28;20067;-63
2023/08/08 01:40:29;;;;;;;4.03;1.20;;;;;;;;;;4953881;28;20031;-67
2023/08/08 01:42:56;;;;;;;7.43;1.48;;;;;;;;;;4953618;28;20059;-63
2023/08/08 01:45:21;;;;;;;5.47;1.48;;;;;;;;;;4960587;28;20039;-62
2023/08/08 01:47:50;;;;;;;8.15;1.95;;;;;;;;;;4972788;28;20380;-63
2023/08/08 01:50:16;;;;;;;6.13;1.70;;;;;;;;;;4973035;28;20471;-66
2023/08/08 01:52:41;;;;;;;7.38;1.50;;;;;;;;;;4956587;28;20039;-67
2023/08/08 01:55:07;;;;;;;8.55;1.88;;;;;;;;;;4953593;28;20441;-66
2023/08/08 01:57:33;;;;;;;8.23;1.70;;;;;;;;;;4953652;28;20086;-68
2023/08/08 01:59:58;;;;;;;7.03;1.50;;;;;;;;;;4953683;28;20023;-68
2023/08/08 02:02:24;;;;;;;9.70;1.85;;;;;;;;;;4953851;28;20437;-68
2023/08/08 02:04:49;;;;;;;6.38;1.50;;;;;;;;;;4941375;29;20119;-67
2023/08/08 02:07:15;;;;;;;6.63;1.27;;;;;;;;;;4934329;29;20078;-67
2023/08/08 02:09:41;;;;;;;8.63;1.40;;;;;;;;;;4934219;29;20028;-68
2023/08/08 02:12:06;;;;;;;8.40;1.60;;;;;;;;;;4934302;29;20024;-67
2023/08/08 02:14:32;;;;;;;5.13;1.45;;;;;;;;;;4934241;29;20090;-68
2023/08/08 02:16:57;;;;;;;8.15;1.70;;;;;;;;;;4933799;29;20027;-67
2023/08/08 02:19:23;;;;;;;6.80;1.70;;;;;;;;;;4933988;29;20470;-67
2023/08/08 02:21:48;;;;;;;6.20;1.70;;;;;;;;;;4933972;29;20031;-67
2023/08/08 02:24:14;;;;;;;6.30;1.50;;;;;;;;;;4933804;29;20086;-68
2023/08/08 02:26:39;;;;;;;5.45;1.75;;;;;;;;;;4933972;29;20031;-68
2023/08/08 02:29:05;;;;;;;3.90;1.38;;;;;;;;;;4933740;29;20038;-67
2023/08/08 02:31:30;;;;;;;5.47;1.63;;;;;;;;;;4933620;29;20034;-68
2023/08/08 02:33:56;;;;;;;5.93;2.20;;;;;;;;;;4933760;29;20469;-66
2023/08/08 02:36:21;;;;;;;7.47;1.48;;;;;;;;;;4954578;28;20031;-66
2023/08/08 02:38:47;;;;;;;5.22;1.55;;;;;;;;;;4952633;28;20488;-66
2023/08/08 02:41:12;;;;;;;5.15;1.58;;;;;;;;;;4953041;28;20027;-68
2023/08/08 02:43:38;;;;;;;4.30;1.67;;;;;;;;;;4952542;28;20050;-68
2023/08/08 02:46:03;;;;;;;5.13;1.40;;;;;;;;;;4964661;28;20449;-67
2023/08/08 02:48:30;;;;;;;4.55;1.80;;;;;;;;;;4971967;28;20023;-66
2023/08/08 02:50:56;;;;;;;8.90;1.80;;;;;;;;;;4969724;28;20109;-66
2023/08/08 02:53:22;;;;;;;5.47;1.30;;;;;;;;;;4952612;28;20043;-65
2023/08/08 02:55:48;;;;;;;5.00;1.50;;;;;;;;;;4952597;28;20031;-68
2023/08/08 02:58:13;;;;;;;5.82;1.13;;;;;;;;;;4952480;28;20030;-68
2023/08/08 03:00:39;;;;;;;5.35;1.25;;;;;;;;;;4952198;28;20464;-66
2023/08/08 03:03:04;;;;;;;3.70;1.38;;;;;;;;;;4952634;28;20473;-67
2023/08/08 03:05:29;;;;;;;5.00;1.83;;;;;;;;;;4935054;29;20115;-67
2023/08/08 03:07:55;;;;;;;5.72;1.52;;;;;;;;;;4932019;29;20084;-66
2023/08/08 03:10:20;;;;;;;5.03;1.83;;;;;;;;;;4933117;29;20034;-63
2023/08/08 03:12:46;;;;;;;6.40;1.40;;;;;;;;;;4933113;29;20031;-66
2023/08/08 03:15:11;;;;;;;4.78;1.20;;;;;;;;;;4933064;29;20066;-66
2023/08/08 03:17:37;;;;;;;5.47;1.40;;;;;;;;;;4933170;29;20394;-69
2023/08/08 03:20:05;;;;;;;7.65;1.70;;;;;;;;;;4933183;29;20040;-64
2023/08/08 03:22:31;;;;;;;4.07;1.60;;;;;;;;;;4933138;29;20050;-68
2023/08/08 03:24:56;;;;;;;2.83;1.10;;;;;;;;;;4931516;28;20122;-68
2023/08/08 03:27:22;;;;;;;6.50;1.80;;;;;;;;;;4933177;29;20110;-67
2023/08/08 03:29:47;;;;;;;8.98;1.75;;;;;;;;;;4932959;29;20186;-66
2023/08/08 03:32:12;;;;;;;7.57;1.40;;;;;;;;;;4933483;29;20466;-66
2023/08/08 03:34:38;;;;;;;6.47;1.65;;;;;;;;;;4937306;28;20106;-67
2023/08/08 03:37:03;;;;;;;5.05;1.48;;;;;;;;;;4955342;28;20041;-66
2023/08/08 03:39:29;;;;;;;7.32;1.70;;;;;;;;;;4952057;28;20035;-63
2023/08/08 03:41:54;;;;;;;4.90;1.40;;;;;;;;;;4952173;28;20114;-66
2023/08/08 03:44:20;;;;;;;4.45;1.40;;;;;;;;;;4951632;28;20130;-65
2023/08/08 03:46:45;;;;;;;3.80;1.20;;;;;;;;;;4970247;28;20027;-68
2023/08/08 03:49:11;;;;;;;4.85;1.42;;;;;;;;;;4971353;28;20031;-67
2023/08/08 03:51:36;;;;;;;4.50;1.45;;;;;;;;;;4963840;28;20473;-65
2023/08/08 03:54:02;;;;;;;3.45;1.50;;;;;;;;;;4952031;29;20097;-67
2023/08/08 03:56:28;;;;;;;7.32;1.45;;;;;;;;;;4951838;28;20031;-66
2023/08/08 03:58:53;;;;;;;3.30;1.42;;;;;;;;;;4954671;28;20039;-64
2023/08/08 04:01:19;;;;;;;4.97;1.40;;;;;;;;;;4955615;28;20520;-68
2023/08/08 04:03:44;;;;;;;4.57;1.40;;;;;;;;;;4952242;28;20040;-65
2023/08/08 04:06:10;;;;;;;5.28;1.67;;;;;;;;;;4936305;29;20111;-65
2023/08/08 04:08:35;;;;;;;5.75;1.30;;;;;;;;;;4936342;29;20035;-66
2023/08/08 04:11:00;;;;;;;3.80;1.60;;;;;;;;;;4935972;29;20024;-66
2023/08/08 04:13:26;;;;;;;5.50;1.60;;;;;;;;;;4936010;29;20583;-69
2023/08/08 04:15:51;;;;;;;4.57;1.52;;;;;;;;;;4936470;29;20031;-66
2023/08/08 04:18:17;;;;;;;7.65;1.50;;;;;;;;;;4936280;29;20036;-67
2023/08/08 04:20:45;;;;;;;3.65;1.60;;;;;;;;;;4936180;29;20031;-65
2023/08/08 04:23:10;;;;;;;4.38;1.65;;;;;;;;;;4936062;29;20031;-67
2023/08/08 04:25:35;;;;;;;3.90;1.75;;;;;;;;;;4944446;29;20082;-67
2023/08/08 04:28:01;;;;;;;2.95;1.33;;;;;;;;;;4954717;28;20032;-67
2023/08/08 04:30:26;;;;;;;2.90;1.30;;;;;;;;;;4955088;28;20033;-67
2023/08/08 04:32:52;;;;;;;5.32;1.83;;;;;;;;;;4954959;28;20038;-67
2023/08/08 04:35:17;;;;;;;6.13;1.42;;;;;;;;;;4960424;28;20061;-64
2023/08/08 04:37:43;;;;;;;5.68;1.45;;;;;;;;;;4954930;28;20059;-65
2023/08/08 04:40:09;;;;;;;3.80;1.48;;;;;;;;;;4954391;28;20031;-66
2023/08/08 04:42:34;;;;;;;4.82;1.40;;;;;;;;;;4954627;28;20023;-65
2023/08/08 04:45:00;;;;;;;3.03;1.48;;;;;;;;;;4958463;28;20038;-66
2023/08/08 04:47:25;;;;;;;6.30;1.40;;;;;;;;;;4973966;28;20038;-67
2023/08/08 04:49:51;;;;;;;4.47;1.75;;;;;;;;;;4974036;28;20107;-66
2023/08/08 04:52:16;;;;;;;3.85;1.60;;;;;;;;;;4961017;28;20042;-66
2023/08/08 04:54:41;;;;;;;4.35;1.50;;;;;;;;;;4954258;28;20086;-66
2023/08/08 04:57:07;;;;;;;2.95;1.52;;;;;;;;;;4954179;28;20077;-62
2023/08/08 04:59:32;;;;;;;5.55;1.83;;;;;;;;;;4954368;28;20031;-68
2023/08/08 05:01:58;;;;;;;4.78;1.75;;;;;;;;;;4954425;28;20046;-67
2023/08/08 05:04:23;;;;;;;4.55;1.45;;;;;;;;;;4945879;28;20027;-68
2023/08/08 05:06:49;;;;;;;5.20;1.50;;;;;;;;;;4935109;29;20036;-66
2023/08/08 05:09:15;;;;;;;4.85;1.70;;;;;;;;;;4934757;29;20023;-67
2023/08/08 05:11:41;;;;;;;3.58;1.42;;;;;;;;;;4934839;29;20118;-67
2023/08/08 05:14:06;;;;;;;5.20;1.38;;;;;;;;;;4935073;29;20102;-65
2023/08/08 05:16:32;;;;;;;3.45;1.38;;;;;;;;;;4935098;29;20477;-68
2023/08/08 05:18:57;;;;;;;3.47;1.45;;;;;;;;;;4934942;29;20043;-68
2023/08/08 05:21:23;;;;;;;3.90;1.30;;;;;;;;;;4935033;29;20043;-68
2023/08/08 05:23:49;;;;;;;4.93;1.40;;;;;;;;;;4934685;29;20023;-66
2023/08/08 05:26:15;;;;;;;6.57;1.80;;;;;;;;;;4934453;29;20028;-66
2023/08/08 05:28:41;;;;;;;5.80;1.30;;;;;;;;;;4934763;29;20035;-68
2023/08/08 05:31:06;;;;;;;2.85;1.50;;;;;;;;;;4934775;29;20087;-68
2023/08/08 05:33:32;;;;;;;3.05;1.10;;;;;;;;;;4934803;29;20023;-66
2023/08/08 05:35:58;;;;;;;6.28;1.40;;;;;;;;;;4952472;28;20015;-66
2023/08/08 05:38:23;;;;;;;2.80;1.40;;;;;;;;;;4953614;28;20477;-66
2023/08/08 05:40:49;;;;;;;3.78;1.25;;;;;;;;;;4953481;28;20475;-68
2023/08/08 05:43:18;;;;;;;2.88;1.27;;;;;;;;;;4953479;28;20228;-68
2023/08/08 05:45:46;;;;;;;6.43;1.60;;;;;;;;;;4963383;28;20081;-67
2023/08/08 05:48:12;;;;;;;3.75;1.15;;;;;;;;;;4972817;28;20019;-68
2023/08/08 05:50:41;;;;;;;5.78;1.30;;;;;;;;;;4972772;28;20131;-66
2023/08/08 05:53:06;;;;;;;2.75;1.15;;;;;;;;;;4934241;29;20047;-68
2023/08/08 05:55:32;;;;;;;4.38;1.50;;;;;;;;;;4934137;29;20028;-66
2023/08/08 05:57:57;;;;;;;2.55;1.38;;;;;;;;;;4934240;29;20034;-66
2023/08/08 06:00:23;;;;;;;6.13;1.35;;;;;;;;;;4934424;29;20071;-66
2023/08/08 06:02:49;;;;;;;5.55;1.83;;;;;;;;;;4934029;29;20024;-68
2023/08/08 06:05:16;;;;;;;2.88;1.20;;;;;;;;;;4949148;29;20036;-63
2023/08/08 06:07:41;;;;;;;5.07;1.38;;;;;;;;;;4952975;28;20027;-67
2023/08/08 06:10:08;;;;;;;6.90;1.52;;;;;;;;;;4953008;28;20408;-68
2023/08/08 06:12:33;;;;;;;4.32;1.50;;;;;;;;;;4953148;28;20427;-67
2023/08/08 06:14:59;;;;;;;4.28;1.50;;;;;;;;;;4952708;28;20119;-68
2023/08/08 06:17:24;;;;;;;2.60;1.20;;;;;;;;;;4953134;29;20035;-68
2023/08/08 06:19:50;;;;;;;3.88;1.33;;;;;;;;;;4952428;28;20037;-67
2023/08/08 06:22:16;;;;;;;4.95;1.55;;;;;;;;;;4950293;28;20027;-64
2023/08/08 06:24:41;;;;;;;4.70;1.40;;;;;;;;;;4954852;28;20079;-68
2023/08/08 06:27:07;;;;;;;4.70;1.50;;;;;;;;;;4954566;28;20031;-69
2023/08/08 06:29:32;;;;;;;4.85;1.75;;;;;;;;;;4959977;28;20034;-68
2023/08/08 06:31:58;;;;;;;3.50;1.30;;;;;;;;;;4954524;28;20027;-63
2023/08/08 06:34:23;;;;;;;3.70;1.60;;;;;;;;;;4954582;28;20031;-68
2023/08/08 06:36:48;;;;;;;5.57;1.45;;;;;;;;;;4954297;28;20019;-68
2023/08/08 06:39:14;;;;;;;4.22;1.40;;;;;;;;;;4954700;28;20473;-69
2023/08/08 06:41:40;;;;;;;2.90;1.30;;;;;;;;;;4968541;28;20392;-69
2023/08/08 06:44:07;;;;;;;3.40;1.33;;;;;;;;;;4973428;28;20408;-69
2023/08/08 06:46:32;;;;;;;3.95;1.50;;;;;;;;;;4973786;28;20506;-69
2023/08/08 06:48:59;;;;;;;8.43;1.45;;;;;;;;;;4969407;28;20027;-64
2023/08/08 06:51:25;;;;;;;3.97;1.10;;;;;;;;;;4953923;28;20078;-68
2023/08/08 06:53:51;;;;;;;4.55;1.67;;;;;;;;;;4954378;28;20035;-66
2023/08/08 06:56:16;;;;;;;4.07;1.05;;;;;;;;;;4954388;28;20086;-68
2023/08/08 06:58:43;;;;;;;5.82;1.17;;;;;;;;;;4954272;28;20034;-67
2023/08/08 07:01:09;;;;;;;4.68;1.20;;;;;;;;;;4954519;28;20039;-67
2023/08/08 07:03:35;;;;;;;6.50;1.33;;;;;;;;;;4952219;28;20035;-63
2023/08/08 07:06:00;;;;;;;5.18;1.15;;;;;;;;;;4934879;29;20493;-67
2023/08/08 07:08:26;;;;;;;5.72;1.40;;;;;;;;;;4935026;29;20032;-66
2023/08/08 07:10:51;;;;;;;3.75;1.10;;;;;;;;;;4935079;29;20024;-67
2023/08/08 07:13:17;;;;;;;7.43;1.33;;;;;;;;;;4935082;29;20078;-64
2023/08/08 07:15:42;;;;;;;5.68;1.67;;;;;;;;;;4935102;29;20111;-69
2023/08/08 07:18:08;;;;;;;4.32;1.40;;;;;;;;;;4961649;28;20022;-68
2023/08/08 07:20:33;;;;;;;3.33;1.33;;;;;;;;;;4973224;28;20022;-68
2023/08/08 07:23:00;;;;;;;6.45;1.70;;;;;;;;;;4973316;28;20054;-69
2023/08/08 07:25:25;;;;;;;16.17;2.90;;;;;;;;;;4961290;28;20039;-65
2023/08/08 07:27:51;;;;;;;6.20;1.52;;;;;;;;;;4954194;28;20357;-65
2023/08/08 07:30:16;;;;;;;29.45;5.90;;;;;;;;;;4954158;28;20077;-67
2023/08/08 07:32:42;;;;;;;5.07;1.50;;;;;;;;;;4956806;28;20495;-63
2023/08/08 07:35:08;;;;;;;74.03;11.45;;;;;;;;;;4957409;28;20070;-63
2023/08/08 07:37:34;;;;;;;5.45;1.85;;;;;;;;;;4957683;28;20438;-67
2023/08/08 07:40:00;;;;;;;3.97;1.25;;;;;;;;;;4957895;28;20071;-67
2023/08/08 07:42:26;;;;;;;4.10;1.30;;;;;;;;;;4958006;28;20114;-67
2023/08/08 07:44:51;;;;;;;3.28;1.70;;;;;;;;;;4960443;28;20121;-64
2023/08/08 07:47:17;;;;;;;20.58;4.32;;;;;;;;;;4976761;28;20037;-63
2023/08/08 07:49:42;;;;;;;30.17;5.32;;;;;;;;;;4976537;28;20034;-67
2023/08/08 07:52:08;;;;;;;9.75;2.00;;;;;;;;;;4965035;28;20085;-63
2023/08/08 07:54:34;;;;;;;10.13;2.63;;;;;;;;;;4957575;28;20473;-64
2023/08/08 07:57:00;;;;;;;17.10;2.55;;;;;;;;;;4956141;28;20031;-67
2023/08/08 07:59:25;;;;;;;9.77;2.72;;;;;;;;;;4957397;28;20038;-66
2023/08/08 08:01:51;;;;;;;13.57;2.67;;;;;;;;;;4957405;28;20476;-67
2023/08/08 08:04:16;;;;;;;13.32;3.15;;;;;;;;;;4949635;28;20032;-64
2023/08/08 08:06:42;;;;;;;6.90;1.60;;;;;;;;;;4937960;29;20059;-63
2023/08/08 08:09:07;;;;;;;6.68;2.30;;;;;;;;;;4938157;29;20083;-63
2023/08/08 08:11:33;;;;;;;8.48;2.38;;;;;;;;;;4938139;29;20036;-64
2023/08/08 08:13:58;;;;;;;5.07;1.63;;;;;;;;;;4937902;29;20039;-63
2023/08/08 08:16:24;;;;;;;4.60;1.30;;;;;;;;;;4938026;29;20030;-65
2023/08/08 08:18:49;;;;;;;3.90;1.25;;;;;;;;;;4975297;28;20039;-63
2023/08/08 08:21:17;;;;;;;5.53;1.52;;;;;;;;;;4976450;28;20082;-64
2023/08/08 08:23:43;;;;;;;4.15;1.15;;;;;;;;;;4976420;28;20031;-63
2023/08/08 08:26:08;;;;;;;4.90;1.15;;;;;;;;;;4958260;28;20031;-64
2023/08/08 08:28:33;;;;;;;4.30;1.42;;;;;;;;;;4957026;28;20525;-65
2023/08/08 08:31:04;;;;;;;4.55;1.92;;;;;;;;;;4956807;28;20110;-67
2023/08/08 08:33:30;;;;;;;4.75;1.33;;;;;;;;;;4956574;28;20397;-63
2023/08/08 08:35:55;;;;;;;5.63;1.73;;;;;;;;;;4956822;28;20034;-66
2023/08/08 08:38:21;;;;;;;2.35;1.00;;;;;;;;;;4956793;28;20042;-68
2023/08/08 08:40:48;;;;;;;3.22;1.15;;;;;;;;;;4956700;28;20484;-66
2023/08/08 08:43:15;;;;;;;5.82;1.60;;;;;;;;;;4955820;28;20058;-66
2023/08/08 08:45:43;;;;;;;8.05;1.20;;;;;;;;;;4965964;28;20431;-68
2023/08/08 08:48:12;;;;;;;4.82;1.30;;;;;;;;;;4975755;28;20026;-69
2023/08/08 08:50:39;;;;;;;8.90;2.10;;;;;;;;;;4975730;28;20031;-68
2023/08/08 08:53:05;;;;;;;7.97;1.60;;;;;;;;;;4937362;29;20058;-68
2023/08/08 08:55:31;;;;;;;4.60;1.10;;;;;;;;;;4937250;29;20023;-68
2023/08/08 08:57:57;;;;;;;6.72;1.33;;;;;;;;;;4937082;29;20024;-68
2023/08/08 09:00:24;;;;;;;5.20;1.63;;;;;;;;;;4937423;29;20042;-66
2023/08/08 09:02:50;;;;;;;5.25;1.70;;;;;;;;;;4936764;29;20489;-67
2023/08/08 09:05:21;;;;;;;5.05;1.33;;;;;;;;;;4952253;28;20038;-68
2023/08/08 09:07:46;;;;;;;6.68;1.40;;;;;;;;;;4956220;28;20122;-69
2023/08/08 09:10:15;;;;;;;5.60;1.20;;;;;;;;;;4956219;28;20122;-67
2023/08/08 09:12:40;;;;;;;3.17;1.08;;;;;;;;;;4956152;28;20393;-68
2023/08/08 09:15:06;;;;;;;5.55;1.30;;;;;;;;;;4956006;29;20027;-68
2023/08/08 09:17:32;;;;;;;3.42;1.25;;;;;;;;;;4964393;28;20031;-66
2023/08/08 09:19:58;;;;;;;3.85;1.00;;;;;;;;;;4972652;28;20031;-68
2023/08/08 09:22:24;;;;;;;3.92;1.00;;;;;;;;;;4951903;28;20099;-68
2023/08/08 09:24:49;;;;;;;3.28;0.90;;;;;;;;;;4965910;28;20031;-68
2023/08/08 09:27:15;;;;;;;2.35;1.00;;;;;;;;;;4954437;28;20035;-68
2023/08/08 09:29:41;;;;;;;7.13;1.30;;;;;;;;;;4955575;28;20031;-67
2023/08/08 09:32:08;;;;;;;2.15;1.00;;;;;;;;;;4955542;28;20028;-67
2023/08/08 09:34:33;;;;;;;6.03;1.10;;;;;;;;;;4955715;28;20106;-66
2023/08/08 09:37:00;;;;;;;2.15;1.13;;;;;;;;;;4955629;28;20114;-68
2023/08/08 09:39:26;;;;;;;2.30;1.00;;;;;;;;;;4955725;28;20035;-68
2023/08/08 09:41:51;;;;;;;1.40;0.75;;;;;;;;;;4954360;28;20031;-66
2023/08/08 09:44:17;;;;;;;2.78;1.05;;;;;;;;;;4952900;28;20105;-68
2023/08/08 09:46:42;;;;;;;5.00;1.77;;;;;;;;;;4967451;28;20480;-67
2023/08/08 09:49:10;;;;;;;4.78;1.60;;;;;;;;;;4946928;28;20031;-67
2023/08/08 09:51:35;;;;;;;2.83;0.90;;;;;;;;;;4952756;28;20024;-68
2023/08/08 09:54:01;;;;;;;3.60;1.02;;;;;;;;;;4952325;28;20389;-69
2023/08/08 09:56:28;;;;;;;2.90;1.17;;;;;;;;;;4952781;28;20146;-67
2023/08/08 09:58:56;;;;;;;6.20;1.10;;;;;;;;;;4952706;28;20559;-68
2023/08/08 10:01:21;;;;;;;3.35;1.10;;;;;;;;;;4951411;28;20035;-65
2023/08/08 10:03:48;;;;;;;2.78;1.10;;;;;;;;;;4948021;28;20020;-68
2023/08/08 10:06:14;;;;;;;1.83;0.98;;;;;;;;;;4932473;29;20372;-69
2023/08/08 10:08:39;;;;;;;4.05;0.82;;;;;;;;;;4932967;29;20238;-67
2023/08/08 10:11:09;;;;;;;2.05;0.95;;;;;;;;;;4933407;29;20110;-66
2023/08/08 10:13:34;;;;;;;4.10;1.00;;;;;;;;;;4933314;29;20477;-68
2023/08/08 10:16:04;;;;;;;1.98;1.05;;;;;;;;;;4933433;29;20047;-67
2023/08/08 10:18:30;;;;;;;3.75;1.00;;;;;;;;;;4933663;29;20401;-68
2023/08/08 10:20:57;;;;;;;3.22;1.10;;;;;;;;;;4933585;29;20040;-66
2023/08/08 10:23:23;;;;;;;1.83;1.10;;;;;;;;;;4933938;29;20041;-68
2023/08/08 10:25:51;;;;;;;2.83;1.10;;;;;;;;;;4950873;28;20109;-68
2023/08/08 10:28:19;;;;;;;4.47;1.25;;;;;;;;;;4952861;28;20027;-68
2023/08/08 10:30:50;;;;;;;2.53;1.30;;;;;;;;;;4952344;29;20425;-69
2023/08/08 10:33:23;;;;;;;3.15;0.95;;;;;;;;;;4952809;28;20034;-68
2023/08/08 10:36:06;;;;;;;3.10;1.10;;;;;;;;;;4951725;29;20023;-68
2023/08/08 10:38:42;;;;;;;1.83;0.77;;;;;;;;;;4933651;29;20036;-68
2023/08/08 10:41:11;;;;;;;2.10;0.93;;;;;;;;;;4933722;29;20023;-68
2023/08/08 10:43:36;;;;;;;3.90;0.93;;;;;;;;;;4932877;29;20091;-67
2023/08/08 10:46:03;;;;;;;3.38;1.10;;;;;;;;;;4957919;28;20073;-67
2023/08/08 10:48:29;;;;;;;5.45;0.90;;;;;;;;;;4971571;28;20023;-66
2023/08/08 10:50:58;;;;;;;1.40;0.90;;;;;;;;;;4955329;28;20151;-65
2023/08/08 10:53:28;;;;;;;1.67;0.80;;;;;;;;;;4952369;28;20065;-65
2023/08/08 10:56:02;;;;;;;4.82;1.20;;;;;;;;;;4952781;28;20269;-64
2023/08/08 10:58:38;;;;;;;4.55;1.35;;;;;;;;;;4952474;28;20077;-64
2023/08/08 11:01:08;;;;;;;3.53;1.00;;;;;;;;;;4952573;28;20033;-63
2023/08/08 11:03:39;;;;;;;1.85;1.05;;;;;;;;;;4950601;28;20032;-64
2023/08/08 11:06:06;;;;;;;5.22;1.20;;;;;;;;;;4933812;29;20059;-63
2023/08/08 11:08:32;;;;;;;2.42;1.20;;;;;;;;;;4937395;29;20028;-66
2023/08/08 11:10:59;;;;;;;2.45;1.00;;;;;;;;;;4937530;29;20118;-63
2023/08/08 11:13:25;;;;;;;2.15;0.80;;;;;;;;;;4941864;29;20031;-66
2023/08/08 11:15:50;;;;;;;2.85;1.10;;;;;;;;;;4956490;28;20027;-63
2023/08/08 11:18:16;;;;;;;2.33;1.10;;;;;;;;;;4955392;28;20023;-63
2023/08/08 11:20:42;;;;;;;3.03;1.23;;;;;;;;;;4956267;28;20358;-63
2023/08/08 11:23:10;;;;;;;2.67;1.05;;;;;;;;;;4956316;28;20027;-64
2023/08/08 11:25:36;;;;;;;3.03;1.10;;;;;;;;;;4959216;28;20484;-62
2023/08/08 11:28:02;;;;;;;3.92;1.45;;;;;;;;;;4956032;28;20034;-63
2023/08/08 11:30:30;;;;;;;2.00;1.20;;;;;;;;;;4956384;28;20031;-63
2023/08/08 11:32:56;;;;;;;2.03;1.13;;;;;;;;;;4955965;28;20489;-63
2023/08/08 11:35:23;;;;;;;3.78;1.40;;;;;;;;;;4956278;28;20059;-64
2023/08/08 11:37:51;;;;;;;3.58;1.33;;;;;;;;;;4955795;28;20031;-64
2023/08/08 11:40:17;;;;;;;1.77;1.02;;;;;;;;;;4954727;28;20027;-62
2023/08/08 11:42:44;;;;;;;4.45;1.00;;;;;;;;;;4954213;28;20062;-67
2023/08/08 11:45:11;;;;;;;1.98;1.10;;;;;;;;;;4961067;28;20416;-64
2023/08/08 11:47:37;;;;;;;3.45;1.35;;;;;;;;;;4975189;28;20110;-62
2023/08/08 11:50:05;;;;;;;3.85;1.40;;;;;;;;;;4975025;28;20033;-63
2023/08/08 11:52:30;;;;;;;3.60;1.10;;;;;;;;;;4960253;28;20031;-62
2023/08/08 11:54:59;;;;;;;6.82;1.25;;;;;;;;;;4955674;28;20035;-62
2023/08/08 11:57:25;;;;;;;2.90;1.02;;;;;;;;;;4955465;28;20066;-63
2023/08/08 11:59:55;;;;;;;1.98;0.90;;;;;;;;;;4955685;28;20496;-65
2023/08/08 12:02:22;;;;;;;3.80;1.10;;;;;;;;;;4955436;28;20046;-62
2023/08/08 12:04:48;;;;;;;2.17;1.05;;;;;;;;;;4943807;28;20027;-67
2023/08/08 12:07:14;;;;;;;2.67;1.10;;;;;;;;;;4936231;29;20039;-67
2023/08/08 12:09:40;;;;;;;6.18;1.00;;;;;;;;;;4945157;29;20030;-67
2023/08/08 12:12:06;;;;;;;5.72;1.40;;;;;;;;;;4955264;28;20115;-67
2023/08/08 12:14:38;;;;;;;2.67;0.90;;;;;;;;;;4955513;28;20464;-70
2023/08/08 12:17:05;;;;;;;2.05;1.00;;;;;;;;;;4955322;28;20031;-69
2023/08/08 12:19:30;;;;;;;2.45;1.10;;;;;;;;;;4954140;28;20050;-65
2023/08/08 12:21:55;;;;;;;3.53;1.20;;;;;;;;;;4955155;28;20023;-66
2023/08/08 12:24:21;;;;;;;2.40;1.17;;;;;;;;;;4958192;28;20105;-66
2023/08/08 12:26:46;;;;;;;2.83;1.10;;;;;;;;;;4954705;28;20031;-67
2023/08/08 12:29:13;;;;;;;5.88;1.20;;;;;;;;;;4954949;28;20034;-66
2023/08/08 12:31:39;;;;;;;4.90;1.20;;;;;;;;;;4955041;28;20035;-68
2023/08/08 12:34:04;;;;;;;5.75;1.17;;;;;;;;;;4954683;28;20082;-68
2023/08/08 12:36:30;;;;;;;2.50;1.10;;;;;;;;;;4954929;28;20407;-67
2023/08/08 12:38:56;;;;;;;2.85;1.00;;;;;;;;;;4954685;28;20106;-67
2023/08/08 12:41:23;;;;;;;2.30;0.90;;;;;;;;;;4954400;28;20031;-67
2023/08/08 12:43:49;;;;;;;4.95;1.08;;;;;;;;;;4954449;28;20505;-66
2023/08/08 12:46:15;;;;;;;3.20;0.73;;;;;;;;;;4968650;28;20027;-68
2023/08/08 12:48:40;;;;;;;1.58;0.73;;;;;;;;;;4974125;28;20518;-67
2023/08/08 12:51:07;;;;;;;4.70;1.00;;;;;;;;;;4970589;28;20416;-68
2023/08/08 12:53:34;;;;;;;2.30;0.93;;;;;;;;;;4950084;28;20090;-69
2023/08/08 12:56:00;;;;;;;1.55;0.77;;;;;;;;;;4953175;28;20027;-69
2023/08/08 12:58:25;;;;;;;2.60;1.10;;;;;;;;;;4942350;29;20067;-65
2023/08/08 13:00:51;;;;;;;3.17;0.93;;;;;;;;;;4955244;28;20103;-67
2023/08/08 13:03:16;;;;;;;2.17;0.80;;;;;;;;;;4953865;28;20984;-67
2023/08/08 13:05:42;;;;;;;1.17;0.68;;;;;;;;;;4953683;28;20027;-69
2023/08/08 13:08:07;;;;;;;1.73;0.70;;;;;;;;;;4955722;28;20038;-69
2023/08/08 13:10:33;;;;;;;0.63;0.47;;;;;;;;;;4955746;28;20027;-71
2023/08/08 13:12:58;;;;;;;2.35;0.90;;;;;;;;;;4962933;28;20031;-68
2023/08/08 13:15:24;;;;;;;0.98;0.52;;;;;;;;;;4955358;28;20054;-67
2023/08/08 13:17:49;;;;;;;3.75;0.77;;;;;;;;;;4955694;28;20077;-68
2023/08/08 13:20:15;;;;;;;1.92;0.70;;;;;;;;;;4953315;28;20035;-69
2023/08/08 13:22:42;;;;;;;1.88;0.65;;;;;;;;;;4955339;28;20480;-68
2023/08/08 13:25:08;;;;;;;2.92;0.80;;;;;;;;;;4955415;28;20038;-70
2023/08/08 13:27:33;;;;;;;3.15;0.90;;;;;;;;;;4955682;28;20019;-70
2023/08/08 13:29:59;;;;;;;2.67;0.80;;;;;;;;;;4955291;28;20515;-67
2023/08/08 13:32:24;;;;;;;3.40;1.17;;;;;;;;;;4955540;28;20027;-68
2023/08/08 13:34:50;;;;;;;1.33;0.80;;;;;;;;;;4955087;28;20078;-66
2023/08/08 13:37:15;;;;;;;2.90;1.10;;;;;;;;;;4955064;28;20485;-69
2023/08/08 13:39:41;;;;;;;1.40;0.60;;;;;;;;;;4955366;28;20039;-71
2023/08/08 13:42:09;;;;;;;1.08;0.52;;;;;;;;;;4955236;28;20512;-67
2023/08/08 13:44:34;;;;;;;0.85;0.60;;;;;;;;;;4955890;28;20054;-68
2023/08/08 13:47:00;;;;;;;1.48;0.80;;;;;;;;;;4966150;28;20035;-70
2023/08/08 13:49:26;;;;;;;1.70;0.80;;;;;;;;;;4952899;28;20023;-69
2023/08/08 13:51:53;;;;;;;1.52;0.65;;;;;;;;;;4954853;28;20058;-67
2023/08/08 13:54:19;;;;;;;1.67;0.80;;;;;;;;;;4955070;28;20023;-68
2023/08/08 13:56:45;;;;;;;2.65;0.98;;;;;;;;;;4951766;28;20099;-68
2023/08/08 13:59:10;;;;;;;2.13;0.90;;;;;;;;;;4942493;29;20107;-69
2023/08/08 14:01:36;;;;;;;11.38;1.50;;;;;;;;;;4954998;28;20035;-67
2023/08/08 14:04:01;;;;;;;1.65;0.80;;;;;;;;;;4949493;28;20030;-68
2023/08/08 14:06:27;;;;;;;3.25;1.13;;;;;;;;;;4935621;29;20050;-68
2023/08/08 14:08:52;;;;;;;3.05;1.30;;;;;;;;;;4934784;29;20066;-65
2023/08/08 14:11:18;;;;;;;2.85;0.70;;;;;;;;;;4952863;28;20034;-68
2023/08/08 14:13:44;;;;;;;2.05;0.93;;;;;;;;;;4954885;28;20075;-71
2023/08/08 14:16:09;;;;;;;1.88;1.00;;;;;;;;;;4954399;28;20081;-69
2023/08/08 14:18:35;;;;;;;1.30;0.70;;;;;;;;;;4954325;28;20413;-67
2023/08/08 14:21:02;;;;;;;6.20;0.70;;;;;;;;;;4953867;28;20042;-69
2023/08/08 14:23:27;;;;;;;1.00;0.70;;;;;;;;;;4954249;28;20071;-64
2023/08/08 14:25:53;;;;;;;2.40;0.82;;;;;;;;;;4953943;28;20362;-67
2023/08/08 14:28:18;;;;;;;2.30;0.90;;;;;;;;;;4953832;28;20561;-63
2023/08/08 14:30:44;;;;;;;3.83;1.15;;;;;;;;;;4953762;28;20034;-64
2023/08/08 14:33:09;;;;;;;1.77;0.77;;;;;;;;;;4954002;28;20147;-63
2023/08/08 14:35:34;;;;;;;2.90;0.75;;;;;;;;;;4954092;28;20127;-66
2023/08/08 14:38:00;;;;;;;6.68;0.82;;;;;;;;;;4953776;28;20053;-67